sensor_id;sensor_type;location;lat;lon;timestamp;P1;durP1;ratioP1;P2;durP2;ratioP2
23115;SDS011;11727;52.134;5.052;2023-02-15T00:01:54;35.03;;;13.82;;
23115;SDS011;11727;52.134;5.052;2023-02-15T00:04:21;26.60;;;12.68;;
23115;SDS011;11727;52.134;5.052;2023-02-15T00:06:48;30.42;;;12.25;;
23115;SDS011;11727;52.134;5.052;2023-02-15T00:09:14;31.40;;;11.65;;
23115;SDS011;11727;52.134;5.052;2023-02-15T00:11:40;27.90;;;12.45;;
23115;SDS011;11727;52.134;5.052;2023-02-15T00:14:15;29.88;;;12.23;;
23115;SDS011;11727;52.134;5.052;2023-02-15T00:16:42;34.47;;;13.40;;
23115;SDS011;11727;52.134;5.052;2023-02-15T00:19:09;32.22;;;12.63;;
23115;SDS011;11727;52.134;5.052;2023-02-15T00:21:35;23.42;;;11.80;;
23115;SDS011;11727;52.134;5.052;2023-02-15T00:24:02;32.55;;;12.55;;
23115;SDS011;11727;52.134;5.052;2023-02-15T00:28:55;26.65;;;10.95;;
23115;SDS011;11727;52.134;5.052;2023-02-15T00:31:23;24.58;;;10.95;;
23115;SDS011;11727;52.134;5.052;2023-02-15T00:33:49;30.85;;;12.13;;
23115;SDS011;11727;52.134;5.052;2023-02-15T00:36:15;31.83;;;12.70;;
23115;SDS011;11727;52.134;5.052;2023-02-15T00:38:41;28.83;;;12.18;;
23115;SDS011;11727;52.134;5.052;2023-02-15T00:41:07;24.73;;;11.70;;
23115;SDS011;11727;52.134;5.052;2023-02-15T00:43:33;27.83;;;12.30;;
23115;SDS011;11727;52.134;5.052;2023-02-15T00:46:00;33.67;;;13.17;;
23115;SDS011;11727;52.134;5.052;2023-02-15T00:48:26;34.63;;;11.63;;
23115;SDS011;11727;52.134;5.052;2023-02-15T00:50:53;28.10;;;11.30;;
23115;SDS011;11727;52.134;5.052;2023-02-15T00:53:20;30.58;;;12.27;;
23115;SDS011;11727;52.134;5.052;2023-02-15T00:55:46;28.75;;;11.95;;
23115;SDS011;11727;52.134;5.052;2023-02-15T00:58:12;34.45;;;12.32;;
23115;SDS011;11727;52.134;5.052;2023-02-15T01:00:39;27.90;;;12.17;;
23115;SDS011;11727;52.134;5.052;2023-02-15T01:03:06;29.35;;;12.13;;
23115;SDS011;11727;52.134;5.052;2023-02-15T01:05:31;33.38;;;13.48;;
23115;SDS011;11727;52.134;5.052;2023-02-15T01:07:58;30.17;;;12.50;;
23115;SDS011;11727;52.134;5.052;2023-02-15T01:10:24;29.77;;;12.55;;
23115;SDS011;11727;52.134;5.052;2023-02-15T01:12:52;33.72;;;11.60;;
23115;SDS011;11727;52.134;5.052;2023-02-15T01:15:19;26.73;;;11.80;;
23115;SDS011;11727;52.134;5.052;2023-02-15T01:17:45;27.10;;;13.00;;
23115;SDS011;11727;52.134;5.052;2023-02-15T01:20:16;28.08;;;11.07;;
23115;SDS011;11727;52.134;5.052;2023-02-15T01:22:42;27.90;;;12.50;;
23115;SDS011;11727;52.134;5.052;2023-02-15T01:25:08;22.50;;;10.45;;
23115;SDS011;11727;52.134;5.052;2023-02-15T01:27:34;28.00;;;10.55;;
23115;SDS011;11727;52.134;5.052;2023-02-15T01:30:00;27.88;;;11.98;;
23115;SDS011;11727;52.134;5.052;2023-02-15T01:32:25;23.25;;;10.70;;
23115;SDS011;11727;52.134;5.052;2023-02-15T01:34:51;26.05;;;11.63;;
23115;SDS011;11727;52.134;5.052;2023-02-15T01:37:18;29.48;;;11.00;;
23115;SDS011;11727;52.134;5.052;2023-02-15T01:39:43;33.00;;;11.07;;
23115;SDS011;11727;52.134;5.052;2023-02-15T01:42:12;25.95;;;11.27;;
23115;SDS011;11727;52.134;5.052;2023-02-15T01:44:54;29.05;;;11.55;;
23115;SDS011;11727;52.134;5.052;2023-02-15T01:47:22;24.77;;;10.25;;
23115;SDS011;11727;52.134;5.052;2023-02-15T01:50:01;23.25;;;9.77;;
23115;SDS011;11727;52.134;5.052;2023-02-15T01:52:34;27.42;;;11.60;;
23115;SDS011;11727;52.134;5.052;2023-02-15T01:55:02;22.95;;;10.00;;
23115;SDS011;11727;52.134;5.052;2023-02-15T01:57:29;25.03;;;10.30;;
23115;SDS011;11727;52.134;5.052;2023-02-15T01:59:56;24.83;;;9.77;;
23115;SDS011;11727;52.134;5.052;2023-02-15T02:02:27;27.23;;;11.55;;
23115;SDS011;11727;52.134;5.052;2023-02-15T02:04:54;28.30;;;10.30;;
23115;SDS011;11727;52.134;5.052;2023-02-15T02:07:28;34.97;;;11.63;;
23115;SDS011;11727;52.134;5.052;2023-02-15T02:09:57;29.98;;;10.95;;
23115;SDS011;11727;52.134;5.052;2023-02-15T02:12:23;28.10;;;11.38;;
23115;SDS011;11727;52.134;5.052;2023-02-15T02:14:50;21.67;;;9.68;;
23115;SDS011;11727;52.134;5.052;2023-02-15T02:29:43;24.08;;;9.52;;
23115;SDS011;11727;52.134;5.052;2023-02-15T02:35:19;32.58;;;11.50;;
23115;SDS011;11727;52.134;5.052;2023-02-15T02:38:00;22.52;;;10.50;;
23115;SDS011;11727;52.134;5.052;2023-02-15T02:43:33;32.90;;;11.93;;
23115;SDS011;11727;52.134;5.052;2023-02-15T02:46:20;26.95;;;10.60;;
23115;SDS011;11727;52.134;5.052;2023-02-15T02:48:51;21.38;;;10.70;;
23115;SDS011;11727;52.134;5.052;2023-02-15T02:51:17;28.30;;;11.57;;
23115;SDS011;11727;52.134;5.052;2023-02-15T02:53:47;28.02;;;11.00;;
23115;SDS011;11727;52.134;5.052;2023-02-15T02:56:23;36.42;;;12.63;;
23115;SDS011;11727;52.134;5.052;2023-02-15T02:58:55;26.88;;;10.93;;
23115;SDS011;11727;52.134;5.052;2023-02-15T03:01:49;26.05;;;10.75;;
23115;SDS011;11727;52.134;5.052;2023-02-15T03:04:22;30.75;;;11.07;;
23115;SDS011;11727;52.134;5.052;2023-02-15T03:06:55;32.05;;;14.45;;
23115;SDS011;11727;52.134;5.052;2023-02-15T03:09:27;31.30;;;12.05;;
23115;SDS011;11727;52.134;5.052;2023-02-15T03:12:18;33.70;;;13.38;;
23115;SDS011;11727;52.134;5.052;2023-02-15T03:14:48;29.83;;;11.65;;
23115;SDS011;11727;52.134;5.052;2023-02-15T03:17:18;29.05;;;12.38;;
23115;SDS011;11727;52.134;5.052;2023-02-15T03:19:47;34.05;;;12.90;;
23115;SDS011;11727;52.134;5.052;2023-02-15T03:22:18;30.50;;;12.93;;
23115;SDS011;11727;52.134;5.052;2023-02-15T03:24:55;31.05;;;13.57;;
23115;SDS011;11727;52.134;5.052;2023-02-15T03:27:27;31.35;;;12.95;;
23115;SDS011;11727;52.134;5.052;2023-02-15T03:29:58;26.10;;;11.38;;
23115;SDS011;11727;52.134;5.052;2023-02-15T03:32:27;25.35;;;10.48;;
23115;SDS011;11727;52.134;5.052;2023-02-15T03:34:56;30.67;;;11.75;;
23115;SDS011;11727;52.134;5.052;2023-02-15T03:37:26;31.30;;;13.05;;
23115;SDS011;11727;52.134;5.052;2023-02-15T03:45:51;30.27;;;11.50;;
23115;SDS011;11727;52.134;5.052;2023-02-15T03:48:25;28.08;;;11.40;;
23115;SDS011;11727;52.134;5.052;2023-02-15T03:50:52;25.20;;;10.88;;
23115;SDS011;11727;52.134;5.052;2023-02-15T03:53:41;27.13;;;10.38;;
23115;SDS011;11727;52.134;5.052;2023-02-15T03:56:09;27.27;;;12.65;;
23115;SDS011;11727;52.134;5.052;2023-02-15T03:58:35;28.90;;;11.80;;
23115;SDS011;11727;52.134;5.052;2023-02-15T04:01:26;28.13;;;11.68;;
23115;SDS011;11727;52.134;5.052;2023-02-15T04:04:19;36.85;;;13.73;;
23115;SDS011;11727;52.134;5.052;2023-02-15T04:06:47;33.90;;;13.65;;
23115;SDS011;11727;52.134;5.052;2023-02-15T04:09:13;36.33;;;13.32;;
23115;SDS011;11727;52.134;5.052;2023-02-15T04:11:57;31.35;;;13.10;;
23115;SDS011;11727;52.134;5.052;2023-02-15T04:14:23;38.25;;;13.50;;
23115;SDS011;11727;52.134;5.052;2023-02-15T04:17:08;37.47;;;14.13;;
23115;SDS011;11727;52.134;5.052;2023-02-15T04:19:34;38.42;;;13.18;;
23115;SDS011;11727;52.134;5.052;2023-02-15T04:22:18;33.25;;;12.77;;
23115;SDS011;11727;52.134;5.052;2023-02-15T04:25:02;36.53;;;13.20;;
23115;SDS011;11727;52.134;5.052;2023-02-15T04:27:34;39.42;;;14.90;;
23115;SDS011;11727;52.134;5.052;2023-02-15T04:30:01;33.38;;;13.82;;
23115;SDS011;11727;52.134;5.052;2023-02-15T04:32:27;36.38;;;13.63;;
23115;SDS011;11727;52.134;5.052;2023-02-15T04:34:52;39.20;;;14.93;;
23115;SDS011;11727;52.134;5.052;2023-02-15T04:37:18;36.55;;;13.85;;
23115;SDS011;11727;52.134;5.052;2023-02-15T04:39:44;35.83;;;14.02;;
23115;SDS011;11727;52.134;5.052;2023-02-15T04:42:09;44.10;;;14.57;;
23115;SDS011;11727;52.134;5.052;2023-02-15T04:44:35;35.38;;;13.27;;
23115;SDS011;11727;52.134;5.052;2023-02-15T04:47:01;42.13;;;14.85;;
23115;SDS011;11727;52.134;5.052;2023-02-15T04:49:26;34.15;;;13.98;;
23115;SDS011;11727;52.134;5.052;2023-02-15T04:51:52;34.63;;;14.20;;
23115;SDS011;11727;52.134;5.052;2023-02-15T04:54:17;44.97;;;13.52;;
23115;SDS011;11727;52.134;5.052;2023-02-15T04:56:43;33.47;;;13.85;;
23115;SDS011;11727;52.134;5.052;2023-02-15T04:59:12;31.70;;;13.18;;
23115;SDS011;11727;52.134;5.052;2023-02-15T05:01:38;33.15;;;14.48;;
23115;SDS011;11727;52.134;5.052;2023-02-15T05:04:03;39.85;;;12.25;;
23115;SDS011;11727;52.134;5.052;2023-02-15T05:06:29;34.65;;;13.63;;
23115;SDS011;11727;52.134;5.052;2023-02-15T05:08:55;40.88;;;14.65;;
23115;SDS011;11727;52.134;5.052;2023-02-15T05:11:20;36.90;;;13.88;;
23115;SDS011;11727;52.134;5.052;2023-02-15T05:13:46;31.27;;;13.18;;
23115;SDS011;11727;52.134;5.052;2023-02-15T05:16:12;37.03;;;14.27;;
23115;SDS011;11727;52.134;5.052;2023-02-15T05:18:38;35.13;;;13.60;;
23115;SDS011;11727;52.134;5.052;2023-02-15T05:21:03;31.05;;;13.07;;
23115;SDS011;11727;52.134;5.052;2023-02-15T05:23:29;30.05;;;11.48;;
23115;SDS011;11727;52.134;5.052;2023-02-15T05:25:55;29.92;;;12.52;;
23115;SDS011;11727;52.134;5.052;2023-02-15T05:28:39;39.42;;;15.05;;
23115;SDS011;11727;52.134;5.052;2023-02-15T05:33:38;31.35;;;12.70;;
23115;SDS011;11727;52.134;5.052;2023-02-15T05:36:04;44.35;;;14.52;;
23115;SDS011;11727;52.134;5.052;2023-02-15T05:38:30;36.40;;;14.20;;
23115;SDS011;11727;52.134;5.052;2023-02-15T05:40:56;36.22;;;11.82;;
23115;SDS011;11727;52.134;5.052;2023-02-15T05:43:22;30.38;;;11.82;;
23115;SDS011;11727;52.134;5.052;2023-02-15T05:45:48;27.85;;;12.15;;
23115;SDS011;11727;52.134;5.052;2023-02-15T05:48:16;36.88;;;13.82;;
23115;SDS011;11727;52.134;5.052;2023-02-15T05:50:43;33.60;;;13.10;;
23115;SDS011;11727;52.134;5.052;2023-02-15T05:53:10;36.70;;;13.07;;
23115;SDS011;11727;52.134;5.052;2023-02-15T05:55:39;33.65;;;12.48;;
23115;SDS011;11727;52.134;5.052;2023-02-15T05:58:05;38.58;;;13.05;;
23115;SDS011;11727;52.134;5.052;2023-02-15T06:00:31;29.48;;;13.63;;
23115;SDS011;11727;52.134;5.052;2023-02-15T06:02:56;32.92;;;13.10;;
23115;SDS011;11727;52.134;5.052;2023-02-15T06:05:22;42.63;;;15.07;;
23115;SDS011;11727;52.134;5.052;2023-02-15T06:07:48;37.42;;;13.70;;
23115;SDS011;11727;52.134;5.052;2023-02-15T06:10:13;30.48;;;12.75;;
23115;SDS011;11727;52.134;5.052;2023-02-15T06:12:39;36.38;;;14.00;;
23115;SDS011;11727;52.134;5.052;2023-02-15T06:15:05;41.00;;;12.05;;
23115;SDS011;11727;52.134;5.052;2023-02-15T06:17:31;27.60;;;11.60;;
23115;SDS011;11727;52.134;5.052;2023-02-15T06:19:56;28.80;;;11.32;;
23115;SDS011;11727;52.134;5.052;2023-02-15T06:22:22;36.90;;;13.20;;
23115;SDS011;11727;52.134;5.052;2023-02-15T06:24:47;29.90;;;11.95;;
23115;SDS011;11727;52.134;5.052;2023-02-15T06:27:13;29.52;;;10.93;;
23115;SDS011;11727;52.134;5.052;2023-02-15T06:29:39;33.05;;;11.73;;
23115;SDS011;11727;52.134;5.052;2023-02-15T06:32:04;29.42;;;10.98;;
23115;SDS011;11727;52.134;5.052;2023-02-15T06:34:31;24.42;;;10.15;;
23115;SDS011;11727;52.134;5.052;2023-02-15T06:36:56;24.85;;;11.18;;
23115;SDS011;11727;52.134;5.052;2023-02-15T06:39:22;37.50;;;12.50;;
23115;SDS011;11727;52.134;5.052;2023-02-15T06:41:48;26.63;;;12.95;;
23115;SDS011;11727;52.134;5.052;2023-02-15T06:44:13;34.33;;;12.27;;
23115;SDS011;11727;52.134;5.052;2023-02-15T06:46:39;33.65;;;11.90;;
23115;SDS011;11727;52.134;5.052;2023-02-15T06:49:05;32.40;;;12.40;;
23115;SDS011;11727;52.134;5.052;2023-02-15T06:51:30;27.80;;;11.75;;
23115;SDS011;11727;52.134;5.052;2023-02-15T06:53:56;33.00;;;13.00;;
23115;SDS011;11727;52.134;5.052;2023-02-15T06:56:22;39.08;;;13.63;;
23115;SDS011;11727;52.134;5.052;2023-02-15T06:58:47;29.88;;;11.38;;
23115;SDS011;11727;52.134;5.052;2023-02-15T07:01:14;35.55;;;12.80;;
23115;SDS011;11727;52.134;5.052;2023-02-15T07:03:40;28.23;;;11.82;;
23115;SDS011;11727;52.134;5.052;2023-02-15T07:06:06;32.63;;;12.73;;
23115;SDS011;11727;52.134;5.052;2023-02-15T07:08:33;44.05;;;14.15;;
23115;SDS011;11727;52.134;5.052;2023-02-15T07:11:00;40.55;;;13.20;;
23115;SDS011;11727;52.134;5.052;2023-02-15T07:13:45;33.40;;;13.38;;
23115;SDS011;11727;52.134;5.052;2023-02-15T07:16:12;33.53;;;12.70;;
23115;SDS011;11727;52.134;5.052;2023-02-15T07:18:38;29.85;;;12.60;;
23115;SDS011;11727;52.134;5.052;2023-02-15T07:21:04;32.10;;;12.68;;
23115;SDS011;11727;52.134;5.052;2023-02-15T07:23:32;31.73;;;12.45;;
23115;SDS011;11727;52.134;5.052;2023-02-15T07:26:02;37.00;;;13.85;;
23115;SDS011;11727;52.134;5.052;2023-02-15T07:28:28;31.75;;;12.88;;
23115;SDS011;11727;52.134;5.052;2023-02-15T07:30:54;37.85;;;13.38;;
23115;SDS011;11727;52.134;5.052;2023-02-15T07:33:20;36.42;;;12.68;;
23115;SDS011;11727;52.134;5.052;2023-02-15T07:35:54;33.83;;;13.55;;
23115;SDS011;11727;52.134;5.052;2023-02-15T07:40:57;34.55;;;12.40;;
23115;SDS011;11727;52.134;5.052;2023-02-15T07:43:26;32.35;;;13.15;;
23115;SDS011;11727;52.134;5.052;2023-02-15T07:45:53;35.03;;;14.43;;
23115;SDS011;11727;52.134;5.052;2023-02-15T07:48:18;30.90;;;13.23;;
23115;SDS011;11727;52.134;5.052;2023-02-15T07:50:44;37.22;;;13.30;;
23115;SDS011;11727;52.134;5.052;2023-02-15T07:53:10;42.05;;;14.90;;
23115;SDS011;11727;52.134;5.052;2023-02-15T07:55:35;42.63;;;14.60;;
23115;SDS011;11727;52.134;5.052;2023-02-15T07:58:01;32.22;;;13.85;;
23115;SDS011;11727;52.134;5.052;2023-02-15T08:00:27;41.13;;;14.95;;
23115;SDS011;11727;52.134;5.052;2023-02-15T08:02:55;34.45;;;14.15;;
23115;SDS011;11727;52.134;5.052;2023-02-15T08:05:40;40.80;;;15.23;;
23115;SDS011;11727;52.134;5.052;2023-02-15T08:08:07;39.72;;;14.85;;
23115;SDS011;11727;52.134;5.052;2023-02-15T08:10:56;31.70;;;13.30;;
23115;SDS011;11727;52.134;5.052;2023-02-15T08:13:44;31.30;;;12.82;;
23115;SDS011;11727;52.134;5.052;2023-02-15T08:16:24;35.90;;;14.03;;
23115;SDS011;11727;52.134;5.052;2023-02-15T08:18:55;36.88;;;14.38;;
23115;SDS011;11727;52.134;5.052;2023-02-15T08:21:22;36.45;;;15.02;;
23115;SDS011;11727;52.134;5.052;2023-02-15T08:23:51;37.50;;;14.38;;
23115;SDS011;11727;52.134;5.052;2023-02-15T08:26:16;37.05;;;14.40;;
23115;SDS011;11727;52.134;5.052;2023-02-15T08:28:42;44.15;;;14.52;;
23115;SDS011;11727;52.134;5.052;2023-02-15T08:31:10;31.17;;;12.73;;
23115;SDS011;11727;52.134;5.052;2023-02-15T08:36:07;33.25;;;13.10;;
23115;SDS011;11727;52.134;5.052;2023-02-15T08:38:34;42.60;;;14.20;;
23115;SDS011;11727;52.134;5.052;2023-02-15T08:41:20;36.20;;;13.75;;
23115;SDS011;11727;52.134;5.052;2023-02-15T08:43:48;37.90;;;14.75;;
23115;SDS011;11727;52.134;5.052;2023-02-15T08:46:16;39.92;;;14.18;;
23115;SDS011;11727;52.134;5.052;2023-02-15T08:48:42;34.55;;;12.80;;
23115;SDS011;11727;52.134;5.052;2023-02-15T08:51:12;39.25;;;14.80;;
23115;SDS011;11727;52.134;5.052;2023-02-15T08:53:40;32.63;;;14.23;;
23115;SDS011;11727;52.134;5.052;2023-02-15T08:56:08;40.88;;;15.82;;
23115;SDS011;11727;52.134;5.052;2023-02-15T08:58:34;35.53;;;14.85;;
23115;SDS011;11727;52.134;5.052;2023-02-15T09:01:00;32.72;;;13.75;;
23115;SDS011;11727;52.134;5.052;2023-02-15T09:03:28;33.42;;;14.45;;
23115;SDS011;11727;52.134;5.052;2023-02-15T09:05:58;32.35;;;14.35;;
23115;SDS011;11727;52.134;5.052;2023-02-15T09:08:25;38.38;;;14.30;;
23115;SDS011;11727;52.134;5.052;2023-02-15T09:10:52;42.88;;;15.82;;
23115;SDS011;11727;52.134;5.052;2023-02-15T09:13:18;35.15;;;13.65;;
23115;SDS011;11727;52.134;5.052;2023-02-15T09:15:45;36.97;;;12.67;;
23115;SDS011;11727;52.134;5.052;2023-02-15T09:18:11;33.28;;;14.63;;
23115;SDS011;11727;52.134;5.052;2023-02-15T09:20:41;35.42;;;15.13;;
23115;SDS011;11727;52.134;5.052;2023-02-15T09:23:08;35.45;;;13.55;;
23115;SDS011;11727;52.134;5.052;2023-02-15T09:25:34;30.50;;;13.35;;
23115;SDS011;11727;52.134;5.052;2023-02-15T09:27:59;47.90;;;16.73;;
23115;SDS011;11727;52.134;5.052;2023-02-15T09:30:25;35.08;;;15.55;;
23115;SDS011;11727;52.134;5.052;2023-02-15T09:32:50;39.45;;;13.90;;
23115;SDS011;11727;52.134;5.052;2023-02-15T09:35:16;34.13;;;14.20;;
23115;SDS011;11727;52.134;5.052;2023-02-15T09:37:42;41.03;;;15.35;;
23115;SDS011;11727;52.134;5.052;2023-02-15T09:40:07;29.48;;;12.77;;
23115;SDS011;11727;52.134;5.052;2023-02-15T09:42:43;38.03;;;15.05;;
23115;SDS011;11727;52.134;5.052;2023-02-15T09:56:58;37.83;;;13.98;;
23115;SDS011;11727;52.134;5.052;2023-02-15T09:59:56;35.85;;;14.68;;
23115;SDS011;11727;52.134;5.052;2023-02-15T10:02:31;31.17;;;13.23;;
23115;SDS011;11727;52.134;5.052;2023-02-15T10:10:33;33.83;;;13.43;;
23115;SDS011;11727;52.134;5.052;2023-02-15T10:24:07;37.60;;;14.25;;
23115;SDS011;11727;52.134;5.052;2023-02-15T10:26:48;33.40;;;13.88;;
23115;SDS011;11727;52.134;5.052;2023-02-15T10:34:17;40.13;;;14.32;;
23115;SDS011;11727;52.134;5.052;2023-02-15T10:51:03;34.10;;;14.80;;
23115;SDS011;11727;52.134;5.052;2023-02-15T10:56:24;31.23;;;14.70;;
23115;SDS011;11727;52.134;5.052;2023-02-15T11:01:59;40.33;;;14.98;;
23115;SDS011;11727;52.134;5.052;2023-02-15T11:07:25;35.95;;;14.73;;
23115;SDS011;11727;52.134;5.052;2023-02-15T11:09:56;36.35;;;14.77;;
23115;SDS011;11727;52.134;5.052;2023-02-15T11:12:30;35.53;;;14.55;;
23115;SDS011;11727;52.134;5.052;2023-02-15T11:14:58;37.58;;;16.20;;
23115;SDS011;11727;52.134;5.052;2023-02-15T11:17:44;32.85;;;13.95;;
23115;SDS011;11727;52.134;5.052;2023-02-15T11:22:50;42.03;;;15.45;;
23115;SDS011;11727;52.134;5.052;2023-02-15T11:27:47;33.35;;;14.73;;
23115;SDS011;11727;52.134;5.052;2023-02-15T11:30:15;38.28;;;16.00;;
23115;SDS011;11727;52.134;5.052;2023-02-15T11:32:51;33.42;;;13.82;;
23115;SDS011;11727;52.134;5.052;2023-02-15T11:38:04;28.17;;;13.73;;
23115;SDS011;11727;52.134;5.052;2023-02-15T11:40:46;37.05;;;15.32;;
23115;SDS011;11727;52.134;5.052;2023-02-15T11:43:32;40.25;;;16.08;;
23115;SDS011;11727;52.134;5.052;2023-02-15T11:46:07;45.42;;;17.67;;
23115;SDS011;11727;52.134;5.052;2023-02-15T11:48:36;36.35;;;15.52;;
23115;SDS011;11727;52.134;5.052;2023-02-15T11:51:02;37.17;;;14.65;;
23115;SDS011;11727;52.134;5.052;2023-02-15T11:53:31;32.30;;;14.70;;
23115;SDS011;11727;52.134;5.052;2023-02-15T11:55:58;39.78;;;16.63;;
23115;SDS011;11727;52.134;5.052;2023-02-15T12:01:23;43.80;;;17.58;;
23115;SDS011;11727;52.134;5.052;2023-02-15T12:06:25;35.28;;;15.02;;
23115;SDS011;11727;52.134;5.052;2023-02-15T12:09:01;38.85;;;15.23;;
23115;SDS011;11727;52.134;5.052;2023-02-15T12:11:33;40.83;;;17.85;;
23115;SDS011;11727;52.134;5.052;2023-02-15T12:14:05;37.63;;;16.65;;
23115;SDS011;11727;52.134;5.052;2023-02-15T12:16:42;42.42;;;16.70;;
23115;SDS011;11727;52.134;5.052;2023-02-15T12:19:19;42.45;;;17.23;;
23115;SDS011;11727;52.134;5.052;2023-02-15T12:21:49;39.22;;;18.00;;
23115;SDS011;11727;52.134;5.052;2023-02-15T12:24:18;42.92;;;17.00;;
23115;SDS011;11727;52.134;5.052;2023-02-15T12:26:56;43.70;;;16.40;;
23115;SDS011;11727;52.134;5.052;2023-02-15T12:29:26;43.50;;;16.80;;
23115;SDS011;11727;52.134;5.052;2023-02-15T12:31:55;39.25;;;16.13;;
23115;SDS011;11727;52.134;5.052;2023-02-15T12:34:25;36.13;;;17.30;;
23115;SDS011;11727;52.134;5.052;2023-02-15T12:36:56;42.63;;;17.42;;
23115;SDS011;11727;52.134;5.052;2023-02-15T12:39:26;47.67;;;18.13;;
23115;SDS011;11727;52.134;5.052;2023-02-15T12:44:25;48.53;;;18.63;;
23115;SDS011;11727;52.134;5.052;2023-02-15T12:46:56;39.65;;;18.20;;
23115;SDS011;11727;52.134;5.052;2023-02-15T12:49:31;35.63;;;16.95;;
23115;SDS011;11727;52.134;5.052;2023-02-15T12:52:05;46.97;;;17.17;;
23115;SDS011;11727;52.134;5.052;2023-02-15T12:54:35;42.95;;;17.25;;
23115;SDS011;11727;52.134;5.052;2023-02-15T13:00:03;38.75;;;16.88;;
23115;SDS011;11727;52.134;5.052;2023-02-15T13:07:38;41.78;;;16.02;;
23115;SDS011;11727;52.134;5.052;2023-02-15T13:10:24;34.70;;;16.10;;
23115;SDS011;11727;52.134;5.052;2023-02-15T13:12:56;43.05;;;16.20;;
23115;SDS011;11727;52.134;5.052;2023-02-15T13:15:34;41.27;;;16.33;;
23115;SDS011;11727;52.134;5.052;2023-02-15T13:18:02;39.83;;;17.45;;
23115;SDS011;11727;52.134;5.052;2023-02-15T13:20:31;49.45;;;16.33;;
23115;SDS011;11727;52.134;5.052;2023-02-15T13:23:03;45.08;;;16.45;;
23115;SDS011;11727;52.134;5.052;2023-02-15T13:25:32;38.45;;;16.98;;
23115;SDS011;11727;52.134;5.052;2023-02-15T13:28:11;40.20;;;17.33;;
23115;SDS011;11727;52.134;5.052;2023-02-15T13:30:42;39.45;;;16.10;;
23115;SDS011;11727;52.134;5.052;2023-02-15T13:33:14;34.22;;;16.33;;
23115;SDS011;11727;52.134;5.052;2023-02-15T13:35:44;46.05;;;18.33;;
23115;SDS011;11727;52.134;5.052;2023-02-15T13:41:19;31.50;;;15.07;;
23115;SDS011;11727;52.134;5.052;2023-02-15T13:43:59;40.72;;;16.92;;
23115;SDS011;11727;52.134;5.052;2023-02-15T13:52:27;40.83;;;16.42;;
23115;SDS011;11727;52.134;5.052;2023-02-15T14:05:49;44.85;;;16.92;;
23115;SDS011;11727;52.134;5.052;2023-02-15T14:11:13;36.42;;;15.55;;
23115;SDS011;11727;52.134;5.052;2023-02-15T14:20:14;33.55;;;14.93;;
23115;SDS011;11727;52.134;5.052;2023-02-15T14:22:48;41.33;;;17.13;;
23115;SDS011;11727;52.134;5.052;2023-02-15T14:25:40;44.05;;;18.77;;
23115;SDS011;11727;52.134;5.052;2023-02-15T14:28:19;45.63;;;19.30;;
23115;SDS011;11727;52.134;5.052;2023-02-15T14:30:58;39.72;;;17.05;;
23115;SDS011;11727;52.134;5.052;2023-02-15T14:36:08;45.30;;;18.08;;
23115;SDS011;11727;52.134;5.052;2023-02-15T14:46:53;44.95;;;17.50;;
23115;SDS011;11727;52.134;5.052;2023-02-15T14:49:27;40.83;;;19.08;;
23115;SDS011;11727;52.134;5.052;2023-02-15T14:52:00;32.88;;;15.32;;
23115;SDS011;11727;52.134;5.052;2023-02-15T14:59:26;46.15;;;18.23;;
23115;SDS011;11727;52.134;5.052;2023-02-15T15:01:56;43.08;;;18.70;;
23115;SDS011;11727;52.134;5.052;2023-02-15T15:04:25;42.33;;;18.23;;
23115;SDS011;11727;52.134;5.052;2023-02-15T15:07:08;38.13;;;17.27;;
23115;SDS011;11727;52.134;5.052;2023-02-15T15:09:46;40.92;;;17.55;;
23115;SDS011;11727;52.134;5.052;2023-02-15T15:14:49;40.95;;;17.70;;
23115;SDS011;11727;52.134;5.052;2023-02-15T15:18:00;40.88;;;17.70;;
23115;SDS011;11727;52.134;5.052;2023-02-15T15:23:30;38.40;;;17.52;;
23115;SDS011;11727;52.134;5.052;2023-02-15T15:25:41;47.72;;;19.55;;
23115;SDS011;11727;52.134;5.052;2023-02-15T15:28:10;50.45;;;18.25;;
23115;SDS011;11727;52.134;5.052;2023-02-15T15:50:47;40.75;;;17.23;;
23115;SDS011;11727;52.134;5.052;2023-02-15T15:53:22;36.10;;;16.25;;
23115;SDS011;11727;52.134;5.052;2023-02-15T15:55:50;38.67;;;18.02;;
23115;SDS011;11727;52.134;5.052;2023-02-15T15:58:20;43.10;;;18.92;;
23115;SDS011;11727;52.134;5.052;2023-02-15T16:00:48;44.03;;;17.47;;
23115;SDS011;11727;52.134;5.052;2023-02-15T16:03:25;46.22;;;18.55;;
23115;SDS011;11727;52.134;5.052;2023-02-15T16:05:52;39.38;;;17.83;;
23115;SDS011;11727;52.134;5.052;2023-02-15T16:08:36;41.83;;;18.40;;
23115;SDS011;11727;52.134;5.052;2023-02-15T16:11:19;50.00;;;19.35;;
23115;SDS011;11727;52.134;5.052;2023-02-15T16:13:48;40.10;;;16.55;;
23115;SDS011;11727;52.134;5.052;2023-02-15T16:16:25;47.07;;;20.20;;
23115;SDS011;11727;52.134;5.052;2023-02-15T16:18:54;38.35;;;17.98;;
23115;SDS011;11727;52.134;5.052;2023-02-15T16:21:28;39.90;;;18.60;;
23115;SDS011;11727;52.134;5.052;2023-02-15T16:27:12;49.55;;;18.13;;
23115;SDS011;11727;52.134;5.052;2023-02-15T16:29:43;41.05;;;18.50;;
23115;SDS011;11727;52.134;5.052;2023-02-15T16:32:42;42.28;;;16.50;;
23115;SDS011;11727;52.134;5.052;2023-02-15T16:35:02;41.35;;;17.15;;
23115;SDS011;11727;52.134;5.052;2023-02-15T16:37:32;41.38;;;17.27;;
23115;SDS011;11727;52.134;5.052;2023-02-15T16:39:58;36.28;;;16.30;;
23115;SDS011;11727;52.134;5.052;2023-02-15T16:42:24;46.97;;;19.48;;
23115;SDS011;11727;52.134;5.052;2023-02-15T16:45:35;43.10;;;17.23;;
23115;SDS011;11727;52.134;5.052;2023-02-15T16:47:42;42.03;;;17.55;;
23115;SDS011;11727;52.134;5.052;2023-02-15T16:52:58;45.72;;;17.77;;
23115;SDS011;11727;52.134;5.052;2023-02-15T16:55:26;39.95;;;17.25;;
23115;SDS011;11727;52.134;5.052;2023-02-15T16:58:06;41.58;;;17.05;;
23115;SDS011;11727;52.134;5.052;2023-02-15T17:00:37;50.53;;;18.95;;
23115;SDS011;11727;52.134;5.052;2023-02-15T17:08:14;41.60;;;18.02;;
23115;SDS011;11727;52.134;5.052;2023-02-15T17:18:28;42.03;;;17.63;;
23115;SDS011;11727;52.134;5.052;2023-02-15T17:21:00;50.80;;;19.25;;
23115;SDS011;11727;52.134;5.052;2023-02-15T17:23:41;48.90;;;18.08;;
23115;SDS011;11727;52.134;5.052;2023-02-15T17:28:54;46.55;;;16.85;;
23115;SDS011;11727;52.134;5.052;2023-02-15T17:31:22;44.60;;;17.38;;
23115;SDS011;11727;52.134;5.052;2023-02-15T17:33:56;44.63;;;15.88;;
23115;SDS011;11727;52.134;5.052;2023-02-15T17:36:24;46.17;;;17.15;;
23115;SDS011;11727;52.134;5.052;2023-02-15T17:41:26;50.15;;;19.38;;
23115;SDS011;11727;52.134;5.052;2023-02-15T17:43:54;44.53;;;17.67;;
23115;SDS011;11727;52.134;5.052;2023-02-15T17:46:20;42.80;;;16.40;;
23115;SDS011;11727;52.134;5.052;2023-02-15T17:48:49;43.28;;;17.45;;
23115;SDS011;11727;52.134;5.052;2023-02-15T17:51:17;48.10;;;17.02;;
23115;SDS011;11727;52.134;5.052;2023-02-15T17:53:46;42.70;;;16.65;;
23115;SDS011;11727;52.134;5.052;2023-02-15T17:56:32;42.38;;;15.75;;
23115;SDS011;11727;52.134;5.052;2023-02-15T17:58:58;36.80;;;15.60;;
23115;SDS011;11727;52.134;5.052;2023-02-15T18:01:24;32.70;;;15.15;;
23115;SDS011;11727;52.134;5.052;2023-02-15T18:04:09;38.10;;;15.77;;
23115;SDS011;11727;52.134;5.052;2023-02-15T18:06:55;41.38;;;15.00;;
23115;SDS011;11727;52.134;5.052;2023-02-15T18:09:39;44.60;;;15.82;;